LKNY weather

Nymburk Ul Ploch Airport
Nymburk, Central Bohemian Region, Czechia

Public forecast

Using degrees Celsius for public forecast. Weather courtesy of forecast.io.

Closest aviation weather report (METAR) to Nymburk Ul Ploch Airport

Closest report is Čáslav Air Base, 18.7 nm (34.6 km) SE. Retrieved 2019/10/21 07:00 UTC (5 minutes ago):

LKCV 210700Z 25003KT 210V280 7000 NSC 10/09 Q1017 NOSIG RMK WHT WHT

Closest aviation forecast (TAF) to Nymburk Ul Ploch Airport

Closest forecast is Čáslav Air Base, 18.7 nm (34.6 km) SE. Retrieved 2019/10/21 06:06 UTC (59 minutes ago):

TAF LKCV 210500Z 2106/2206 VRB02KT 9999 BKN040 TEMPO 2106/2108 3000 MIFG OVC003 PROB30 2106/2107 0800 FG VV002 BECMG 2109/2112 35006KT CAVOK BECMG 2200/2203 VRB02KT 2000 MIFG DZ OVC003